Аэропорт: Талаги. Архангельск

ICAO: ULAA

METAR:
2019/03/26 13:00
ULAA 261300Z 36004MPS 320V030 9999 BKN015CB 02/M00 Q1000 R08/910360 NOSIG RMK QFE749/0998
METAR:
2019/03/26 12:24
TAF TAF ULAA 261100Z 2612/2712 35003MPS 6000 BKN007 BKN012 
      TEMPO 2612/2621 33004MPS 2000 SHSN BR BKN005 BKN011CB 
     FM262100 33004MPS 9999 BKN012 
      TEMPO 2621/2712 30004G09MPS 4000 -SN BKN011